KCEW/CEW METAR and TAF weather

Enter ICAO airport designator
Station Type Date Time Source
KCEW METAR 2023/09/28 17:53 UTC NOAA

KCEW 281753Z AUTO VRB03KT 10SM SCT025 OVC040 26/19 A3004 RMK AO2 SLP170 T02560189 10256 20211 58007


Station Type Date Time Source
KCEW Decoded METAR 2023/09/28 17:53 UTC NOAA

CRESTVIEW SIKES AIRPORT, FL, United States (KCEW) 30-46N 086-31W 55M
Sep 28, 2023 - 01:53 PM EDT / 2023.09.28 1753 UTC
Wind: Variable at 3 MPH (3 KT):0
Visibility: 10 mile(s):0
Sky conditions: overcast
Temperature: 78.1 F (25.6 C)
Dew Point: 66.0 F (18.9 C)
Relative Humidity: 66%
Pressure (altimeter): 30.04 in. Hg (1017 hPa)
Pressure tendency: 0.02 inches (0.7 hPa) lower than three hours ago
ob: KCEW 281753Z AUTO VRB03KT 10SM SCT025 OVC040 26/19 A3004 RMK AO2 SLP170 T02560189 10256 20211 58007
cycle: 18

Station Type Date Time Source
KCEW TAF UTC NOAA

Error!

Example: see airport list